Terminal Aerodrome Forecast
Issued by NWS Topeka, KS

Current Version | Previous Version | Text Only | Print | Product List | Glossary On
Versions: 1 2 3 4 5 6 7 8 9 10 11 12 13 14 15 16 17 18
104
FTUS43 KTOP 241736
TAFTOP
TAF
KTOP 241736Z 2418/2518 17011KT P6SM VCTS BKN060CB
     FM242100 14012G21KT P6SM VCTS BKN035CB
     FM242300 17010KT P6SM -TSRA BKN030CB
      TEMPO 2423/2503 2SM TSRA OVC015CB
     FM250300 35010KT P6SM -TSRA OVC015CB
     FM250800 34011G20KT 5SM -SHRA BR VCTS OVC009CB=

USA.gov is the U.S. government's official web portal to all federal, state and local government web resources and services.